createdAt,value
2022-10-11T00:01:06.145Z,6.30
2022-10-11T00:05:11.955Z,5.10
2022-10-11T00:09:15.580Z,5.50
2022-10-11T00:13:17.387Z,5.30
2022-10-11T00:17:19.220Z,6.30
2022-10-11T00:21:21.321Z,5.80
2022-10-11T00:25:23.268Z,6.00
2022-10-11T00:29:25.177Z,5.50
2022-10-11T00:33:27.046Z,5.40
2022-10-11T00:37:28.920Z,5.50
2022-10-11T00:41:30.964Z,5.40
2022-10-11T00:45:35.515Z,5.20
2022-10-11T00:49:45.346Z,6.50
2022-10-11T00:53:50.381Z,5.70
2022-10-11T00:57:53.276Z,5.80
2022-10-11T01:01:55.346Z,5.80
2022-10-11T01:05:57.187Z,5.90
2022-10-11T01:09:59.136Z,5.30
2022-10-11T01:14:25.915Z,5.90
2022-10-11T01:18:40.437Z,6.50
2022-10-11T01:22:57.331Z,5.80
2022-10-11T01:27:30.597Z,5.70
2022-10-11T01:31:46.666Z,5.20
2022-10-11T01:35:51.618Z,5.50
2022-10-11T01:40:01.083Z,6.50
2022-10-11T01:44:05.033Z,6.20
2022-10-11T01:48:10.322Z,6.20
2022-10-11T01:52:12.572Z,5.20
2022-10-11T01:56:26.301Z,5.40
2022-10-11T02:00:40.236Z,6.00
2022-10-11T02:04:50.038Z,6.40
2022-10-11T02:09:04.354Z,5.90
2022-10-11T02:13:15.701Z,6.40
2022-10-11T02:17:22.405Z,5.90
2022-10-11T02:21:25.408Z,6.50
2022-10-11T02:25:29.813Z,6.80
2022-10-11T02:29:35.665Z,7.10
2022-10-11T02:33:44.538Z,6.60
2022-10-11T02:37:53.682Z,7.40
2022-10-11T02:41:59.562Z,7.60
2022-10-11T02:46:03.662Z,5.90
2022-10-11T02:50:06.282Z,7.80
2022-10-11T02:54:08.232Z,7.00
2022-10-11T02:58:10.075Z,8.00
2022-10-11T03:02:11.930Z,6.90
2022-10-11T03:06:13.834Z,6.10
2022-10-11T03:10:15.726Z,6.10
2022-10-11T03:14:17.641Z,7.50
2022-10-11T03:18:20.262Z,7.00
2022-10-11T03:22:22.160Z,7.50
2022-10-11T03:26:24.031Z,8.50
2022-10-11T03:30:26.125Z,7.90
2022-10-11T03:34:28.048Z,7.10
2022-10-11T03:38:29.905Z,7.80
2022-10-11T03:42:31.755Z,8.40
2022-10-11T03:46:33.666Z,7.80
2022-10-11T03:50:36.650Z,9.60
2022-10-11T03:54:38.503Z,6.70
2022-10-11T03:58:41.204Z,8.70
2022-10-11T04:02:43.236Z,7.90
2022-10-11T04:06:45.079Z,8.30
2022-10-11T04:10:48.114Z,8.40
2022-10-11T04:14:50.208Z,8.70
2022-10-11T04:18:52.056Z,9.10
2022-10-11T04:22:53.925Z,7.80
2022-10-11T04:26:56.073Z,7.90
2022-10-11T04:30:57.882Z,8.90
2022-10-11T04:34:59.856Z,8.70
2022-10-11T04:39:01.751Z,8.50
2022-10-11T04:43:03.750Z,8.70
2022-10-11T04:47:05.631Z,9.40
2022-10-11T04:51:08.299Z,9.10
2022-10-11T04:55:10.909Z,8.60
2022-10-11T04:59:12.805Z,8.80
2022-10-11T05:03:14.807Z,8.10
2022-10-11T05:07:16.845Z,7.60
2022-10-11T05:11:18.912Z,9.50
2022-10-11T05:15:20.724Z,10.00
2022-10-11T05:19:22.641Z,8.80
2022-10-11T05:23:24.666Z,11.60
2022-10-11T05:27:26.601Z,10.40
2022-10-11T05:31:28.673Z,11.70
2022-10-11T05:35:30.507Z,12.10
2022-10-11T05:39:32.414Z,11.10
2022-10-11T05:43:35.887Z,10.50
2022-10-11T05:47:37.877Z,8.90
2022-10-11T05:51:39.761Z,10.40
2022-10-11T05:55:42.974Z,10.30
2022-10-11T05:59:44.931Z,9.90
2022-10-11T06:03:47.610Z,9.90
2022-10-11T06:07:49.557Z,10.00
2022-10-11T06:11:51.453Z,9.50
2022-10-11T06:15:53.320Z,8.80
2022-10-11T06:19:55.489Z,10.50
2022-10-11T06:24:01.428Z,10.00
2022-10-11T06:28:03.987Z,9.90
2022-10-11T06:32:06.082Z,9.70
2022-10-11T06:36:13.697Z,10.10
2022-10-11T06:40:15.657Z,10.20
2022-10-11T06:44:17.628Z,10.90
2022-10-11T06:48:19.552Z,10.70
2022-10-11T06:52:21.620Z,10.20
2022-10-11T06:56:25.702Z,10.30
2022-10-11T07:00:27.697Z,10.60
2022-10-11T07:04:29.692Z,10.40
2022-10-11T07:08:32.543Z,10.20
2022-10-11T07:12:34.468Z,13.50
2022-10-11T07:16:37.385Z,10.20
2022-10-11T07:20:39.472Z,10.20
2022-10-11T07:24:43.017Z,10.30
2022-10-11T07:28:46.409Z,10.20
2022-10-11T07:32:48.319Z,11.80
2022-10-11T07:36:50.343Z,11.70
2022-10-11T07:40:52.485Z,11.30
2022-10-11T07:44:54.409Z,11.30
2022-10-11T07:48:56.536Z,11.80
2022-10-11T07:52:58.564Z,10.90
2022-10-11T07:57:00.522Z,11.00
2022-10-11T08:01:02.524Z,11.60
2022-10-11T08:05:04.962Z,10.00
2022-10-11T08:09:07.044Z,10.70
2022-10-11T08:13:08.911Z,11.60
2022-10-11T08:17:10.824Z,11.00
2022-10-11T08:21:16.136Z,10.40
2022-10-11T08:25:18.255Z,11.20
2022-10-11T08:29:20.201Z,10.90
2022-10-11T08:33:24.513Z,10.60
2022-10-11T08:37:26.462Z,8.70
2022-10-11T08:41:48.123Z,10.20
2022-10-11T08:45:54.729Z,9.40
2022-10-11T08:49:58.553Z,8.40
2022-10-11T08:54:07.951Z,9.80
2022-10-11T08:58:25.029Z,10.10
2022-10-11T09:03:10.568Z,9.90
2022-10-11T09:07:37.147Z,9.60
2022-10-11T09:12:00.653Z,9.50
2022-10-11T09:16:14.824Z,11.80
2022-10-11T09:20:28.710Z,9.60
2022-10-11T09:24:46.954Z,11.60
2022-10-11T09:29:03.358Z,11.60
2022-10-11T09:33:36.576Z,9.70
2022-10-11T09:37:44.020Z,9.70
2022-10-11T09:41:58.492Z,7.90
2022-10-11T09:46:00.449Z,9.80
2022-10-11T09:50:13.926Z,8.00
2022-10-11T09:54:19.225Z,8.20
2022-10-11T09:58:34.279Z,9.60
2022-10-11T10:02:47.026Z,8.40
2022-10-11T10:07:02.125Z,10.50
2022-10-11T10:11:06.708Z,10.20
2022-10-11T10:15:18.729Z,10.50
2022-10-11T10:19:21.481Z,10.70
2022-10-11T10:23:27.635Z,12.00
2022-10-11T10:27:31.371Z,10.10
2022-10-11T10:32:13.386Z,10.60
2022-10-11T10:36:27.081Z,9.10
2022-10-11T10:40:50.597Z,8.40
2022-10-11T10:44:56.464Z,8.60
2022-10-11T10:53:58.189Z,7.60
2022-10-11T10:58:06.788Z,7.20
2022-10-11T11:02:40.880Z,8.00
2022-10-11T11:06:57.663Z,6.10
2022-10-11T11:11:03.964Z,5.60
2022-10-11T11:15:27.182Z,5.60
2022-10-11T11:19:52.935Z,5.70
2022-10-11T11:24:30.358Z,6.10
2022-10-11T11:28:44.362Z,5.40
2022-10-11T11:33:18.248Z,6.00
2022-10-11T11:37:36.848Z,5.90
2022-10-11T11:41:53.385Z,6.80
2022-10-11T11:46:00.927Z,5.00
2022-10-11T11:50:21.872Z,4.30
2022-10-11T11:54:35.682Z,3.50
2022-10-11T11:58:43.510Z,4.40
2022-10-11T12:02:54.304Z,3.70
2022-10-11T12:07:15.805Z,5.70
2022-10-11T12:11:49.047Z,4.10
2022-10-11T12:16:03.442Z,3.70
2022-10-11T12:20:08.084Z,4.70
2022-10-11T12:24:09.985Z,4.70
2022-10-11T12:28:36.602Z,4.90
2022-10-11T12:32:39.022Z,4.30
2022-10-11T12:36:43.835Z,3.90
2022-10-11T12:40:47.640Z,3.20
2022-10-11T12:45:14.336Z,3.20
2022-10-11T12:49:37.405Z,2.90
2022-10-11T12:54:26.068Z,3.40
2022-10-11T13:02:43.941Z,3.30
2022-10-11T13:06:49.406Z,2.80
2022-10-11T13:10:52.973Z,3.20
2022-10-11T13:15:06.679Z,4.50
2022-10-11T13:19:12.996Z,3.30
2022-10-11T13:23:38.497Z,3.10
2022-10-11T13:27:40.549Z,3.40
2022-10-11T13:31:45.621Z,2.60
2022-10-11T13:35:47.984Z,2.90
2022-10-11T13:39:55.357Z,2.30
2022-10-11T13:43:59.937Z,4.40
2022-10-11T13:48:02.137Z,3.80
2022-10-11T13:52:18.952Z,3.00
2022-10-11T13:56:20.893Z,3.40
2022-10-11T14:00:29.853Z,3.50
2022-10-11T14:04:40.919Z,2.80
2022-10-11T14:08:47.753Z,3.20
2022-10-11T14:13:05.092Z,5.00
2022-10-11T14:17:09.717Z,4.90
2022-10-11T14:21:34.190Z,4.00
2022-10-11T14:25:36.093Z,4.40
2022-10-11T14:29:45.651Z,7.20
2022-10-11T14:33:54.692Z,2.80
2022-10-11T14:37:57.625Z,5.30
2022-10-11T14:41:59.811Z,3.70
2022-10-11T14:46:01.830Z,4.20
2022-10-11T14:50:47.328Z,4.30
2022-10-11T14:54:49.205Z,2.50
2022-10-11T14:58:51.470Z,5.60
2022-10-11T15:02:54.043Z,4.60
2022-10-11T15:06:57.003Z,6.60
2022-10-11T15:11:03.206Z,4.90
2022-10-11T15:15:06.371Z,4.50
2022-10-11T15:19:16.120Z,7.50
2022-10-11T15:23:18.228Z,7.80
2022-10-11T15:27:24.912Z,101.30
2022-10-11T15:31:27.129Z,36.20
2022-10-11T15:35:29.568Z,196.10
2022-10-11T15:39:33.203Z,162.30
2022-10-11T15:43:35.127Z,150.70
2022-10-11T15:47:37.293Z,162.60
2022-10-11T15:51:39.692Z,133.70
2022-10-11T15:55:45.213Z,96.20
2022-10-11T15:59:47.265Z,72.70
2022-10-11T16:03:50.469Z,62.60
2022-10-11T16:07:53.754Z,55.30
2022-10-11T16:11:55.647Z,67.90
2022-10-11T16:16:00.652Z,113.10
2022-10-11T16:20:05.384Z,78.70
2022-10-11T16:24:08.521Z,70.00
2022-10-11T16:28:10.618Z,76.60
2022-10-11T16:32:12.536Z,58.60
2022-10-11T16:36:34.623Z,62.10
2022-10-11T16:40:38.468Z,54.20
2022-10-11T16:44:40.373Z,53.90
2022-10-11T16:48:42.271Z,50.70
2022-10-11T16:52:44.126Z,49.50
2022-10-11T16:56:46.853Z,48.50
2022-10-11T17:00:50.152Z,51.00
2022-10-11T17:04:53.640Z,69.40
2022-10-11T17:08:55.784Z,57.10
2022-10-11T17:12:57.655Z,65.00
2022-10-11T17:16:59.587Z,147.50
2022-10-11T17:21:06.711Z,70.40
2022-10-11T17:25:08.804Z,52.10
2022-10-11T17:29:15.761Z,44.40
2022-10-11T17:33:17.738Z,38.60
2022-10-11T17:37:20.203Z,50.50
2022-10-11T17:41:22.173Z,53.60
2022-10-11T17:45:24.062Z,44.70
2022-10-11T17:49:25.944Z,35.20
2022-10-11T17:53:28.011Z,27.50
2022-10-11T17:57:30.082Z,20.10
2022-10-11T18:01:32.450Z,14.80
2022-10-11T18:05:39.993Z,9.90
2022-10-11T18:09:42.322Z,8.60
2022-10-11T18:13:48.273Z,7.90
2022-10-11T18:17:50.672Z,7.70
2022-10-11T18:21:52.967Z,6.10
2022-10-11T18:25:55.980Z,7.40
2022-10-11T18:29:58.915Z,6.80
2022-10-11T18:34:03.317Z,8.30
2022-10-11T18:38:06.481Z,8.00
2022-10-11T18:42:09.377Z,7.60
2022-10-11T18:46:14.026Z,6.40
2022-10-11T18:50:17.048Z,6.80
2022-10-11T18:54:21.350Z,7.80
2022-10-11T18:58:23.846Z,7.80
2022-10-11T19:02:25.882Z,7.70
2022-10-11T19:06:31.484Z,6.40
2022-10-11T19:10:33.948Z,6.20
2022-10-11T19:14:36.107Z,6.70
2022-10-11T19:18:43.195Z,6.90
2022-10-11T19:22:46.068Z,7.20
2022-10-11T19:26:49.048Z,6.40
2022-10-11T19:30:50.911Z,7.40
2022-10-11T19:34:52.733Z,11.00
2022-10-11T19:38:56.256Z,9.10
2022-10-11T19:42:58.088Z,12.90
2022-10-11T19:47:05.301Z,8.60
2022-10-11T19:51:11.567Z,8.80
2022-10-11T19:55:13.520Z,9.00
2022-10-11T19:59:16.236Z,7.20
2022-10-11T20:03:21.234Z,6.10
2022-10-11T20:07:23.109Z,7.00
2022-10-11T20:11:25.372Z,6.20
2022-10-11T20:15:27.601Z,5.80
2022-10-11T20:19:31.246Z,8.20
2022-10-11T20:23:35.438Z,7.10
2022-10-11T20:27:37.558Z,8.70
2022-10-11T20:31:41.281Z,6.40
2022-10-11T20:35:43.358Z,7.60
2022-10-11T20:39:45.425Z,7.10
2022-10-11T20:43:49.949Z,7.40
2022-10-11T20:47:53.296Z,7.00
2022-10-11T20:51:55.281Z,6.80
2022-10-11T20:55:57.428Z,9.00
2022-10-11T20:59:59.567Z,6.80
2022-10-11T21:04:02.242Z,8.10
2022-10-11T21:08:04.494Z,8.60
2022-10-11T21:12:06.453Z,7.40
2022-10-11T21:16:13.189Z,12.90
2022-10-11T21:20:15.184Z,15.20
2022-10-11T21:24:17.519Z,15.20
2022-10-11T21:28:19.660Z,15.60
2022-10-11T21:32:21.495Z,12.70
2022-10-11T21:36:24.533Z,15.10
2022-10-11T21:40:26.372Z,13.10
2022-10-11T21:44:31.539Z,14.00
2022-10-11T21:48:33.354Z,14.30
2022-10-11T21:52:35.515Z,17.00
2022-10-11T21:56:37.650Z,19.20
2022-10-11T22:00:39.845Z,19.90
2022-10-11T22:04:41.745Z,20.70
2022-10-11T22:08:43.702Z,28.40
2022-10-11T22:12:45.596Z,29.10
2022-10-11T22:16:47.431Z,37.60
2022-10-11T22:20:49.350Z,37.50
2022-10-11T22:24:51.187Z,31.40
2022-10-11T22:28:53.359Z,35.20
2022-10-11T22:32:55.543Z,41.20
2022-10-11T22:36:57.380Z,36.90
2022-10-11T22:40:59.299Z,35.60
2022-10-11T22:45:01.205Z,33.30
2022-10-11T22:49:03.157Z,35.10
2022-10-11T22:53:06.112Z,28.30
2022-10-11T22:57:07.985Z,28.10
2022-10-11T23:01:13.059Z,24.30
2022-10-11T23:05:15.264Z,22.20
2022-10-11T23:09:17.058Z,22.70
2022-10-11T23:13:19.021Z,23.60
2022-10-11T23:17:20.940Z,20.20
2022-10-11T23:21:22.871Z,22.80
2022-10-11T23:25:24.748Z,16.90
2022-10-11T23:29:29.636Z,14.60
2022-10-11T23:33:31.458Z,17.60
2022-10-11T23:37:33.291Z,17.30
2022-10-11T23:41:35.139Z,17.60
2022-10-11T23:45:37.131Z,17.50
2022-10-11T23:49:39.015Z,17.10
2022-10-11T23:53:41.146Z,15.70
2022-10-11T23:57:43.121Z,14.60
